createdAt,value
2022-09-22T00:01:18.803Z,75.10
2022-09-22T00:03:50.835Z,75.10
2022-09-22T00:06:22.414Z,75.30
2022-09-22T00:08:51.457Z,75.30
2022-09-22T00:11:23.155Z,75.60
2022-09-22T00:13:52.163Z,75.90
2022-09-22T00:16:24.578Z,75.90
2022-09-22T00:18:51.482Z,75.60
2022-09-22T00:21:19.660Z,75.30
2022-09-22T00:23:47.288Z,75.30
2022-09-22T00:26:15.895Z,75.30
2022-09-22T00:28:43.232Z,75.40
2022-09-22T00:31:12.545Z,75.40
2022-09-22T00:33:40.792Z,75.60
2022-09-22T00:36:07.827Z,75.60
2022-09-22T00:38:35.111Z,75.40
2022-09-22T00:41:02.086Z,75.40
2022-09-22T00:43:30.269Z,75.50
2022-09-22T00:46:33.168Z,75.70
2022-09-22T00:49:01.529Z,76.10
2022-09-22T00:51:30.667Z,77.10
2022-09-22T00:53:57.423Z,76.30
2022-09-22T00:56:27.845Z,76.30
2022-09-22T00:59:00.785Z,76.30
2022-09-22T01:01:27.508Z,76.90
2022-09-22T01:03:54.357Z,77.20
2022-09-22T01:06:25.061Z,77.90
2022-09-22T01:08:51.794Z,79.60
2022-09-22T01:11:20.718Z,78.40
2022-09-22T01:14:13.778Z,79.00
2022-09-22T01:17:08.695Z,79.20
2022-09-22T01:20:19.764Z,78.90
2022-09-22T01:23:25.244Z,79.10
2022-09-22T01:26:02.821Z,79.00
2022-09-22T01:29:07.299Z,79.10
2022-09-22T01:32:07.971Z,79.00
2022-09-22T01:34:44.743Z,79.60
2022-09-22T01:37:39.401Z,79.50
2022-09-22T01:40:14.494Z,79.10
2022-09-22T01:43:06.839Z,80.10
2022-09-22T01:45:33.549Z,79.50
2022-09-22T01:48:12.570Z,78.50
2022-09-22T01:50:43.296Z,78.90
2022-09-22T01:53:13.487Z,79.20
2022-09-22T01:55:42.599Z,78.70
2022-09-22T01:58:26.622Z,79.20
2022-09-22T02:01:10.917Z,79.20
2022-09-22T02:03:49.599Z,79.10
2022-09-22T02:06:32.417Z,80.00
2022-09-22T02:09:06.994Z,79.90
2022-09-22T02:11:34.147Z,80.60
2022-09-22T02:14:01.203Z,80.00
2022-09-22T02:16:27.936Z,80.00
2022-09-22T02:19:13.443Z,79.50
2022-09-22T02:21:40.788Z,78.60
2022-09-22T02:24:08.034Z,78.60
2022-09-22T02:26:35.552Z,79.10
2022-09-22T02:29:06.494Z,79.30
2022-09-22T02:31:34.392Z,79.60
2022-09-22T02:34:01.284Z,79.50
2022-09-22T02:36:46.732Z,79.90
2022-09-22T02:39:19.885Z,80.10
2022-09-22T02:42:11.340Z,80.40
2022-09-22T02:44:56.808Z,80.80
2022-09-22T02:47:29.663Z,81.90
2022-09-22T02:49:56.377Z,83.10
2022-09-22T02:52:23.365Z,85.50
2022-09-22T02:54:51.379Z,83.90
2022-09-22T02:57:18.126Z,84.40
2022-09-22T02:59:44.838Z,83.30
2022-09-22T03:02:11.543Z,83.70
2022-09-22T03:04:38.339Z,83.50
2022-09-22T03:07:06.912Z,83.80
2022-09-22T03:09:33.943Z,84.20
2022-09-22T03:12:00.845Z,84.90
2022-09-22T03:14:27.544Z,84.40
2022-09-22T03:16:54.309Z,85.30
2022-09-22T03:19:21.042Z,84.00
2022-09-22T03:21:47.775Z,83.90
2022-09-22T03:24:14.493Z,83.30
2022-09-22T03:26:41.424Z,83.60
2022-09-22T03:29:08.610Z,83.40
2022-09-22T03:31:35.365Z,83.90
2022-09-22T03:34:02.096Z,84.40
2022-09-22T03:36:28.907Z,84.50
2022-09-22T03:38:55.749Z,85.00
2022-09-22T03:41:22.577Z,84.60
2022-09-22T03:43:49.297Z,84.50
2022-09-22T03:46:16.489Z,84.70
2022-09-22T03:48:45.346Z,84.20
2022-09-22T03:51:12.478Z,84.60
2022-09-22T03:53:39.268Z,84.60
2022-09-22T03:56:10.901Z,83.70
2022-09-22T03:58:37.715Z,83.90
2022-09-22T04:01:04.952Z,84.30
2022-09-22T04:03:32.019Z,83.10
2022-09-22T04:05:58.799Z,83.10
2022-09-22T04:08:25.486Z,82.80
2022-09-22T04:10:52.228Z,83.00
2022-09-22T04:13:19.035Z,83.50
2022-09-22T04:15:46.275Z,83.50
2022-09-22T04:18:14.486Z,83.30
2022-09-22T04:20:43.034Z,83.90
2022-09-22T04:23:10.847Z,82.80
2022-09-22T04:25:37.984Z,83.10
2022-09-22T04:28:05.811Z,83.20
2022-09-22T04:30:32.896Z,83.60
2022-09-22T04:32:59.945Z,83.30
2022-09-22T04:35:28.399Z,83.70
2022-09-22T04:37:55.864Z,83.10
2022-09-22T04:40:22.882Z,83.70
2022-09-22T04:42:49.757Z,84.20
2022-09-22T04:45:16.705Z,83.20
2022-09-22T04:47:47.486Z,83.30
2022-09-22T04:50:14.586Z,83.80
2022-09-22T04:52:45.825Z,83.80
2022-09-22T04:55:13.223Z,76.00
2022-09-22T04:57:40.177Z,76.10
2022-09-22T05:00:07.918Z,76.30
2022-09-22T05:02:35.794Z,76.80
2022-09-22T05:05:03.363Z,77.30
2022-09-22T05:07:30.398Z,77.40
2022-09-22T05:09:57.298Z,77.50
2022-09-22T05:12:24.706Z,77.90
2022-09-22T05:14:51.877Z,78.10
2022-09-22T05:17:20.384Z,78.40
2022-09-22T05:19:47.722Z,78.90
2022-09-22T05:22:14.727Z,79.30
2022-09-22T05:24:42.641Z,79.30
2022-09-22T05:27:09.989Z,79.60
2022-09-22T05:29:37.512Z,79.50
2022-09-22T05:32:04.743Z,79.20
2022-09-22T05:34:32.302Z,79.20
2022-09-22T05:36:59.468Z,79.10
2022-09-22T05:39:26.638Z,78.90
2022-09-22T05:41:53.755Z,79.10
2022-09-22T05:44:22.036Z,79.00
2022-09-22T05:46:49.422Z,79.10
2022-09-22T05:49:16.471Z,79.10
2022-09-22T05:51:43.606Z,78.70
2022-09-22T05:54:10.715Z,78.80
2022-09-22T05:56:37.928Z,78.90
2022-09-22T05:59:04.864Z,78.90
2022-09-22T06:01:31.813Z,78.60
2022-09-22T06:03:58.776Z,78.60
2022-09-22T06:06:25.602Z,78.50
2022-09-22T06:08:52.538Z,78.50
2022-09-22T06:11:19.364Z,78.50
2022-09-22T06:13:50.511Z,78.40
2022-09-22T06:16:18.123Z,78.30
2022-09-22T06:18:48.214Z,78.30
2022-09-22T06:21:15.884Z,78.10
2022-09-22T06:23:43.169Z,77.90
2022-09-22T06:26:10.332Z,77.80
2022-09-22T06:28:37.479Z,77.80
2022-09-22T06:31:04.496Z,78.00
2022-09-22T06:33:31.366Z,77.60
2022-09-22T06:35:58.352Z,77.90
2022-09-22T06:38:25.545Z,77.90
2022-09-22T06:40:52.719Z,77.80
2022-09-22T06:43:23.568Z,77.70
2022-09-22T06:45:51.264Z,77.70
2022-09-22T06:48:18.793Z,77.60
2022-09-22T06:50:49.799Z,77.70
2022-09-22T06:53:17.496Z,77.60
2022-09-22T06:55:45.214Z,77.60
2022-09-22T06:58:12.830Z,77.50
2022-09-22T07:00:41.955Z,77.40
2022-09-22T07:03:20.887Z,77.20
2022-09-22T07:06:00.946Z,76.70
2022-09-22T07:08:29.156Z,76.40
2022-09-22T07:11:03.865Z,76.20
2022-09-22T07:13:31.931Z,75.10
2022-09-22T07:16:08.011Z,75.30
2022-09-22T07:18:35.799Z,75.30
2022-09-22T07:21:04.297Z,76.10
2022-09-22T07:23:31.410Z,75.40
2022-09-22T07:26:01.120Z,74.80
2022-09-22T07:28:28.998Z,75.00
2022-09-22T07:30:59.076Z,75.30
2022-09-22T07:33:26.955Z,76.50
2022-09-22T07:36:08.958Z,83.90
2022-09-22T07:38:39.505Z,84.80
2022-09-22T07:41:08.661Z,80.50
2022-09-22T07:43:35.765Z,79.50
2022-09-22T07:46:02.858Z,79.10
2022-09-22T07:48:36.451Z,78.00
2022-09-22T07:51:12.857Z,78.00
2022-09-22T07:53:41.228Z,77.80
2022-09-22T07:56:12.374Z,77.10
2022-09-22T07:58:48.181Z,77.10
2022-09-22T08:01:14.966Z,76.90
2022-09-22T08:03:41.730Z,76.50
2022-09-22T08:06:12.742Z,76.50
2022-09-22T08:08:42.138Z,76.50
2022-09-22T08:11:13.659Z,76.10
2022-09-22T08:13:44.420Z,76.20
2022-09-22T08:16:11.926Z,75.40
2022-09-22T08:18:39.718Z,75.40
2022-09-22T08:21:07.929Z,75.40
2022-09-22T08:23:34.886Z,75.60
2022-09-22T08:26:05.809Z,75.50
2022-09-22T08:28:33.189Z,76.50
2022-09-22T08:31:00.119Z,77.30
2022-09-22T08:33:27.265Z,76.20
2022-09-22T08:35:58.732Z,74.90
2022-09-22T08:38:28.142Z,74.20
2022-09-22T08:41:31.985Z,74.30
2022-09-22T08:44:11.440Z,74.00
2022-09-22T08:46:44.061Z,73.40
2022-09-22T08:49:48.248Z,73.30
2022-09-22T08:52:48.801Z,73.30
2022-09-22T08:55:21.674Z,73.30
2022-09-22T08:58:02.754Z,73.40
2022-09-22T09:00:48.137Z,73.40
2022-09-22T09:04:11.130Z,73.30
2022-09-22T09:06:43.393Z,73.40
2022-09-22T09:09:31.244Z,73.30
2022-09-22T09:12:14.644Z,73.30
2022-09-22T09:15:05.130Z,73.20
2022-09-22T09:17:35.184Z,73.40
2022-09-22T09:20:12.120Z,74.30
2022-09-22T09:22:44.919Z,73.50
2022-09-22T09:25:23.392Z,73.40
2022-09-22T09:27:57.285Z,73.40
2022-09-22T09:30:24.340Z,73.40
2022-09-22T09:33:01.249Z,73.30
2022-09-22T09:35:39.642Z,73.20
2022-09-22T09:38:10.597Z,73.00
2022-09-22T09:40:37.393Z,73.00
2022-09-22T09:43:04.890Z,73.10
2022-09-22T09:45:59.230Z,73.10
2022-09-22T09:48:34.928Z,73.20
2022-09-22T09:51:05.475Z,73.20
2022-09-22T09:53:40.887Z,73.40
2022-09-22T09:56:28.250Z,73.40
2022-09-22T09:59:18.080Z,74.00
2022-09-22T10:04:33.611Z,72.10
2022-09-22T10:07:12.854Z,59.70
2022-09-22T10:09:41.241Z,55.10
2022-09-22T10:12:24.728Z,52.30
2022-09-22T10:14:52.983Z,51.00
2022-09-22T10:17:21.884Z,54.30
2022-09-22T10:19:50.688Z,55.40
2022-09-22T10:22:27.453Z,55.50
2022-09-22T10:24:56.305Z,56.80
2022-09-22T10:27:24.185Z,58.00
2022-09-22T10:30:21.918Z,58.40
2022-09-22T10:33:09.899Z,58.90
2022-09-22T10:35:36.882Z,59.80
2022-09-22T10:38:19.512Z,60.40
2022-09-22T10:41:07.963Z,60.90
2022-09-22T10:43:47.419Z,61.20
2022-09-22T10:46:24.197Z,61.30
2022-09-22T10:48:54.201Z,61.90
2022-09-22T10:51:50.260Z,62.70
2022-09-22T10:54:20.013Z,62.10
2022-09-22T10:56:49.528Z,62.40
2022-09-22T10:59:27.850Z,62.40
2022-09-22T11:02:07.674Z,62.50
2022-09-22T11:04:42.899Z,62.70
2022-09-22T11:07:48.912Z,62.80
2022-09-22T11:11:01.101Z,62.80
2022-09-22T11:13:57.488Z,63.00
2022-09-22T11:16:59.721Z,63.20
2022-09-22T11:20:10.907Z,63.20
2022-09-22T11:22:43.417Z,63.30
2022-09-22T11:25:28.544Z,63.30
2022-09-22T11:28:04.460Z,63.30
2022-09-22T11:30:45.778Z,63.30
2022-09-22T11:33:40.712Z,63.50
2022-09-22T11:36:16.349Z,63.70
2022-09-22T11:39:00.923Z,64.50
2022-09-22T11:41:37.940Z,63.90
2022-09-22T11:44:39.153Z,63.90
2022-09-22T11:47:30.523Z,63.90
2022-09-22T11:50:05.234Z,64.00
2022-09-22T11:53:06.675Z,64.00
2022-09-22T11:55:52.307Z,64.30
2022-09-22T11:58:21.686Z,64.30
2022-09-22T12:00:55.555Z,64.30
2022-09-22T12:03:35.833Z,64.40
2022-09-22T12:06:05.662Z,64.50
2022-09-22T12:08:47.774Z,64.40
2022-09-22T12:11:16.008Z,64.50
2022-09-22T12:13:44.138Z,64.60
2022-09-22T12:16:31.259Z,64.80
2022-09-22T12:19:13.462Z,64.70
2022-09-22T12:21:48.814Z,64.90
2022-09-22T12:24:16.021Z,65.00
2022-09-22T12:26:46.904Z,65.00
2022-09-22T12:29:16.413Z,65.10
2022-09-22T12:31:44.716Z,65.10
2022-09-22T12:34:41.920Z,65.90
2022-09-22T12:37:11.671Z,65.10
2022-09-22T12:39:46.107Z,64.80
2022-09-22T12:42:22.737Z,56.60
2022-09-22T12:44:58.512Z,55.50
2022-09-22T12:47:33.470Z,52.70
2022-09-22T12:50:02.895Z,50.90
2022-09-22T12:52:42.250Z,52.10
2022-09-22T12:55:21.940Z,52.10
2022-09-22T12:57:50.340Z,52.70
2022-09-22T13:00:23.224Z,53.50
2022-09-22T13:02:50.373Z,50.90
2022-09-22T13:05:26.371Z,50.60
2022-09-22T13:07:53.790Z,52.60
2022-09-22T13:10:23.407Z,53.40
2022-09-22T13:13:02.567Z,54.20
2022-09-22T13:15:33.209Z,54.60
2022-09-22T13:17:59.946Z,54.80
2022-09-22T13:20:34.399Z,55.30
2022-09-22T13:23:05.699Z,55.40
2022-09-22T13:25:32.875Z,55.90
2022-09-22T13:28:04.446Z,56.00
2022-09-22T13:30:32.282Z,55.90
2022-09-22T13:32:59.357Z,56.50
2022-09-22T13:35:27.695Z,56.70
2022-09-22T13:37:56.323Z,57.00
2022-09-22T13:40:25.393Z,56.20
2022-09-22T13:42:52.297Z,56.20
2022-09-22T13:45:21.425Z,56.60
2022-09-22T13:47:48.583Z,56.80
2022-09-22T13:50:21.998Z,56.90
2022-09-22T13:52:51.263Z,57.00
2022-09-22T13:55:36.169Z,56.90
2022-09-22T13:58:06.000Z,57.10
2022-09-22T14:00:49.897Z,55.90
2022-09-22T14:03:21.702Z,53.90
2022-09-22T14:05:53.673Z,51.50
2022-09-22T14:08:26.801Z,49.80
2022-09-22T14:10:53.798Z,50.50
2022-09-22T14:13:43.732Z,51.30
2022-09-22T14:16:49.534Z,51.10
2022-09-22T14:19:21.195Z,52.00
2022-09-22T14:22:04.486Z,52.30
2022-09-22T14:24:34.956Z,53.10
2022-09-22T14:27:04.456Z,53.70
2022-09-22T14:29:40.749Z,54.00
2022-09-22T14:32:12.695Z,54.30
2022-09-22T14:34:40.057Z,54.70
2022-09-22T14:37:22.131Z,54.90
2022-09-22T14:39:50.751Z,55.30
2022-09-22T14:42:25.723Z,55.50
2022-09-22T14:44:52.602Z,55.80
2022-09-22T14:47:27.609Z,56.00
2022-09-22T14:50:21.007Z,56.20
2022-09-22T14:53:04.945Z,56.50
2022-09-22T14:55:43.109Z,56.60
2022-09-22T14:58:17.668Z,56.90
2022-09-22T15:01:10.859Z,57.40
2022-09-22T15:03:41.001Z,57.40
2022-09-22T15:06:13.687Z,58.10
2022-09-22T15:08:42.452Z,58.80
2022-09-22T15:11:14.198Z,58.80
2022-09-22T15:13:43.030Z,59.30
2022-09-22T15:16:34.428Z,58.80
2022-09-22T15:19:01.641Z,60.60
2022-09-22T15:21:29.359Z,59.80
2022-09-22T15:23:58.731Z,61.80
2022-09-22T15:26:28.745Z,63.40
2022-09-22T15:28:59.480Z,62.50
2022-09-22T15:31:28.535Z,64.90
2022-09-22T15:34:01.550Z,62.90
2022-09-22T15:36:33.270Z,60.30
2022-09-22T15:39:07.059Z,61.40
2022-09-22T15:41:34.897Z,60.60
2022-09-22T15:44:38.500Z,59.10
2022-09-22T15:47:05.996Z,59.50
2022-09-22T15:49:35.901Z,59.50
2022-09-22T15:52:05.188Z,59.60
2022-09-22T15:54:34.911Z,59.40
2022-09-22T15:57:04.301Z,59.20
2022-09-22T15:59:32.364Z,58.80
2022-09-22T16:01:59.783Z,58.60
2022-09-22T16:04:34.861Z,59.40
2022-09-22T16:07:06.820Z,59.10
2022-09-22T16:09:35.988Z,60.30
2022-09-22T16:12:03.371Z,60.60
2022-09-22T16:14:30.403Z,59.60
2022-09-22T16:16:57.148Z,59.40
2022-09-22T16:19:23.918Z,60.30
2022-09-22T16:21:51.755Z,63.20
2022-09-22T16:24:18.944Z,64.20
2022-09-22T16:26:45.808Z,65.00
2022-09-22T16:29:13.139Z,65.10
2022-09-22T16:31:41.747Z,65.00
2022-09-22T16:34:09.249Z,63.00
2022-09-22T16:36:36.465Z,60.50
2022-09-22T16:39:03.563Z,62.50
2022-09-22T16:41:34.228Z,61.00
2022-09-22T16:44:01.270Z,60.50
2022-09-22T16:46:28.888Z,59.90
2022-09-22T16:49:06.190Z,59.40
2022-09-22T16:51:35.597Z,59.60
2022-09-22T16:54:03.149Z,59.20
2022-09-22T16:56:30.613Z,57.20
2022-09-22T16:58:57.542Z,55.80
2022-09-22T17:01:24.396Z,54.70
2022-09-22T17:03:52.415Z,53.80
2022-09-22T17:06:24.438Z,53.20
2022-09-22T17:08:56.836Z,52.20
2022-09-22T17:11:29.586Z,51.00
2022-09-22T17:14:12.570Z,52.40
2022-09-22T17:16:43.771Z,52.10
2022-09-22T17:19:24.121Z,51.10
2022-09-22T17:21:52.800Z,51.30
2022-09-22T17:24:19.654Z,51.10
2022-09-22T17:26:48.142Z,49.80
2022-09-22T17:29:18.577Z,51.50
2022-09-22T17:31:48.042Z,52.20
2022-09-22T17:34:14.927Z,51.80
2022-09-22T17:36:41.636Z,52.00
2022-09-22T17:39:10.799Z,51.10
2022-09-22T17:41:44.286Z,49.60
2022-09-22T17:44:11.646Z,50.40
2022-09-22T17:46:58.395Z,49.50
2022-09-22T17:49:43.940Z,47.90
2022-09-22T17:52:29.059Z,46.30
2022-09-22T17:55:09.168Z,45.50
2022-09-22T17:57:37.801Z,45.30
2022-09-22T18:00:06.352Z,45.90
2022-09-22T18:02:36.667Z,47.00
2022-09-22T18:05:15.537Z,48.10
2022-09-22T18:07:43.972Z,49.30
2022-09-22T18:10:14.385Z,48.90
2022-09-22T18:12:42.961Z,49.40
2022-09-22T18:15:14.155Z,49.90
2022-09-22T18:17:42.136Z,50.30
2022-09-22T18:20:12.223Z,50.60
2022-09-22T18:22:39.957Z,51.00
2022-09-22T18:25:10.423Z,51.30
2022-09-22T18:27:38.199Z,51.70
2022-09-22T18:30:06.283Z,52.60
2022-09-22T18:32:34.830Z,53.50
2022-09-22T18:35:02.381Z,54.00
2022-09-22T18:37:29.112Z,53.50
2022-09-22T18:39:55.825Z,53.90
2022-09-22T18:42:24.629Z,55.10
2022-09-22T18:44:55.458Z,56.00
2022-09-22T18:47:23.388Z,59.40
2022-09-22T18:49:51.894Z,59.40
2022-09-22T18:52:24.231Z,60.00
2022-09-22T18:54:53.258Z,61.00
2022-09-22T18:57:21.401Z,59.80
2022-09-22T18:59:50.018Z,60.70
2022-09-22T19:02:17.160Z,62.80
2022-09-22T19:04:45.439Z,61.90
2022-09-22T19:07:30.952Z,60.80
2022-09-22T19:09:57.783Z,60.70
2022-09-22T19:12:25.057Z,60.00
2022-09-22T19:14:54.538Z,62.00
2022-09-22T19:17:21.464Z,60.80
2022-09-22T19:19:49.899Z,60.80
2022-09-22T19:22:16.987Z,62.50
2022-09-22T19:24:46.403Z,62.10
2022-09-22T19:27:15.688Z,62.40
2022-09-22T19:29:42.407Z,62.20
2022-09-22T19:32:09.640Z,62.30
2022-09-22T19:34:36.401Z,62.50
2022-09-22T19:37:03.241Z,62.10
2022-09-22T19:39:30.995Z,63.60
2022-09-22T19:41:57.810Z,62.80
2022-09-22T19:44:24.561Z,62.20
2022-09-22T19:46:51.272Z,61.80
2022-09-22T19:49:18.043Z,61.80
2022-09-22T19:51:44.966Z,61.80
2022-09-22T19:54:12.048Z,61.50
2022-09-22T19:56:38.864Z,61.40
2022-09-22T19:59:08.792Z,64.40
2022-09-22T20:01:40.333Z,63.60
2022-09-22T20:04:09.890Z,62.80
2022-09-22T20:06:36.607Z,62.40
2022-09-22T20:09:03.424Z,63.00
2022-09-22T20:11:34.914Z,62.80
2022-09-22T20:14:20.111Z,62.40
2022-09-22T20:16:51.435Z,62.60
2022-09-22T20:19:18.264Z,62.60
2022-09-22T20:21:46.421Z,62.80
2022-09-22T20:24:16.469Z,63.00
2022-09-22T20:26:45.497Z,63.20
2022-09-22T20:29:15.371Z,63.40
2022-09-22T20:31:42.287Z,63.30
2022-09-22T20:34:15.679Z,63.30
2022-09-22T20:36:44.701Z,63.30
2022-09-22T20:39:16.091Z,64.00
2022-09-22T20:41:43.296Z,63.80
2022-09-22T20:44:16.085Z,63.70
2022-09-22T20:46:43.005Z,63.70
2022-09-22T20:49:13.253Z,64.00
2022-09-22T20:51:40.526Z,64.00
2022-09-22T20:54:07.481Z,63.90
2022-09-22T20:56:34.319Z,63.80
2022-09-22T20:59:01.600Z,64.00
2022-09-22T21:01:28.353Z,64.10
2022-09-22T21:03:55.411Z,64.00
2022-09-22T21:06:22.649Z,63.90
2022-09-22T21:09:08.224Z,63.90
2022-09-22T21:11:35.266Z,64.00
2022-09-22T21:14:04.009Z,64.40
2022-09-22T21:16:30.912Z,64.60
2022-09-22T21:19:02.212Z,64.60
2022-09-22T21:21:30.924Z,64.70
2022-09-22T21:23:57.975Z,64.80
2022-09-22T21:26:24.773Z,64.70
2022-09-22T21:28:52.210Z,64.70
2022-09-22T21:31:19.844Z,64.90
2022-09-22T21:33:48.396Z,65.00
2022-09-22T21:36:19.925Z,64.90
2022-09-22T21:38:58.088Z,64.90
2022-09-22T21:41:28.593Z,65.10
2022-09-22T21:43:55.428Z,65.10
2022-09-22T21:46:26.906Z,65.00
2022-09-22T21:49:01.777Z,65.00
2022-09-22T21:51:36.279Z,65.20
2022-09-22T21:54:04.513Z,65.40
2022-09-22T21:56:32.909Z,65.40
2022-09-22T21:58:59.921Z,65.40
2022-09-22T22:01:28.134Z,65.40
2022-09-22T22:03:55.669Z,65.50
2022-09-22T22:06:23.702Z,65.60
2022-09-22T22:09:03.330Z,65.60
2022-09-22T22:11:40.320Z,65.70
2022-09-22T22:14:08.403Z,65.70
2022-09-22T22:16:41.937Z,65.60
2022-09-22T22:19:10.147Z,65.80
2022-09-22T22:21:36.932Z,65.80
2022-09-22T22:24:23.086Z,65.80
2022-09-22T22:27:01.412Z,65.80
2022-09-22T22:29:31.637Z,65.90
2022-09-22T22:31:58.481Z,66.00
2022-09-22T22:34:27.884Z,66.00
2022-09-22T22:36:55.273Z,66.10
2022-09-22T22:39:22.147Z,66.10
2022-09-22T22:41:50.536Z,66.20
2022-09-22T22:44:17.933Z,66.20
2022-09-22T22:46:45.297Z,66.30
2022-09-22T22:49:12.087Z,66.30
2022-09-22T22:51:43.115Z,66.30
2022-09-22T22:54:11.215Z,67.20
2022-09-22T22:56:41.787Z,66.40
2022-09-22T22:59:09.667Z,66.50
2022-09-22T23:01:36.485Z,66.50
2022-09-22T23:04:05.382Z,66.60
2022-09-22T23:06:39.000Z,66.70
2022-09-22T23:09:06.806Z,66.70
2022-09-22T23:11:37.112Z,66.70
2022-09-22T23:14:05.446Z,66.80
2022-09-22T23:16:33.885Z,66.70
2022-09-22T23:19:01.803Z,66.70
2022-09-22T23:21:30.266Z,66.80
2022-09-22T23:23:57.104Z,66.80
2022-09-22T23:26:24.788Z,66.80
2022-09-22T23:28:54.372Z,66.90
2022-09-22T23:31:24.785Z,66.90
2022-09-22T23:33:52.019Z,66.90
2022-09-22T23:36:26.946Z,67.00
2022-09-22T23:38:55.737Z,67.10
2022-09-22T23:41:24.204Z,67.30
2022-09-22T23:43:51.037Z,67.30
2022-09-22T23:46:17.889Z,67.40
2022-09-22T23:48:44.874Z,68.30
2022-09-22T23:51:11.630Z,67.40
2022-09-22T23:53:38.533Z,67.40
2022-09-22T23:56:06.309Z,67.50
2022-09-22T23:58:33.370Z,67.40
